createdAt,value
2023-04-28T00:03:13.193Z,3.3
2023-04-28T00:05:19.004Z,2.8
2023-04-28T00:07:24.831Z,3.4
2023-04-28T00:11:36.452Z,3
2023-04-28T00:15:51.319Z,2.9
2023-04-28T00:17:57.191Z,3.5
2023-04-28T00:19:01.554Z,3
2023-04-28T00:21:07.475Z,3.7
2023-04-28T00:23:13.231Z,3.6
2023-04-28T00:25:19.129Z,3.3
2023-04-28T00:27:28.029Z,3.6
2023-04-28T00:29:33.858Z,4.1
2023-04-28T00:44:18.096Z,3.8
2023-04-28T00:54:46.977Z,4.2
2023-04-28T00:56:55.895Z,3.2
2023-04-28T00:59:01.730Z,3.3
2023-04-28T01:01:07.631Z,4
2023-04-28T01:05:19.235Z,3.6
2023-04-28T01:07:25.101Z,3.9
2023-04-28T01:09:30.925Z,3.9
2023-04-28T01:11:39.813Z,3.8
2023-04-28T01:13:45.639Z,3.3
2023-04-28T01:15:51.470Z,3.9
2023-04-28T01:16:56.012Z,3.1
2023-04-28T01:21:07.588Z,3.3
2023-04-28T01:27:28.145Z,4.4
2023-04-28T01:33:45.631Z,3.7
2023-04-28T01:35:51.444Z,4.6
2023-04-28T01:37:57.262Z,3.7
2023-04-28T01:40:06.166Z,4.1
2023-04-28T01:42:11.986Z,3.4
2023-04-28T01:44:18.097Z,4.1
2023-04-28T01:46:23.732Z,3.4
2023-04-28T01:48:29.449Z,3.3
2023-04-28T01:50:35.254Z,3.9
2023-04-28T01:54:49.982Z,3.6
2023-04-28T01:56:55.793Z,3.8
2023-04-28T01:59:01.618Z,4.2
2023-04-28T02:01:07.451Z,4
2023-04-28T02:03:13.430Z,4.1
2023-04-28T02:05:19.059Z,3
2023-04-28T02:07:24.865Z,3.5
2023-04-28T02:09:33.752Z,3.4
2023-04-28T02:11:39.545Z,4.2
2023-04-28T02:13:45.386Z,4.1
2023-04-28T02:14:49.797Z,3.2
2023-04-28T02:16:55.659Z,4
2023-04-28T02:19:01.411Z,4.5
2023-04-28T02:21:07.223Z,4.6
2023-04-28T02:23:16.106Z,3.9
2023-04-28T02:25:21.925Z,4.5
2023-04-28T02:29:33.576Z,4.1
2023-04-28T02:31:39.416Z,4.6
2023-04-28T02:33:45.196Z,4.2
2023-04-28T02:35:50.994Z,2.9
2023-04-28T02:37:59.910Z,3.6
2023-04-28T02:40:05.721Z,3.7
2023-04-28T02:42:11.552Z,3.6
2023-04-28T02:44:17.463Z,3.4
2023-04-28T03:03:13.006Z,3.3
2023-04-28T03:05:18.698Z,4
2023-04-28T03:07:27.618Z,3.9
2023-04-28T03:09:33.366Z,3.9
2023-04-28T03:11:39.194Z,3.7
2023-04-28T03:14:10.783Z,5.2
2023-04-28T03:16:16.665Z,3.7
2023-04-28T03:18:22.451Z,3.4
2023-04-28T03:20:31.286Z,4.5
2023-04-28T03:22:37.128Z,3.8
2023-04-28T03:24:42.947Z,4.2
2023-04-28T03:31:00.364Z,4.1
2023-04-28T03:33:06.231Z,3.5
2023-04-28T03:35:15.083Z,5
2023-04-28T03:39:26.708Z,4.8
2023-04-28T03:41:32.517Z,3.1
2023-04-28T03:43:38.353Z,3.3
2023-04-28T03:45:44.175Z,4.7
2023-04-28T03:47:50.000Z,3.3
2023-04-28T03:49:58.893Z,4.7
2023-04-28T03:52:04.732Z,4.7
2023-04-28T03:54:12.072Z,4.1
2023-04-28T03:56:17.868Z,4.6
2023-04-28T03:58:23.681Z,23.3
2023-04-28T04:00:29.486Z,4.6
2023-04-28T04:02:35.385Z,5.6
2023-04-28T04:06:50.036Z,5.4
2023-04-28T04:08:55.817Z,3.8
2023-04-28T04:12:06.060Z,4.6
2023-04-28T04:14:11.916Z,4.7
2023-04-28T04:16:17.805Z,4.6
2023-04-28T04:18:26.604Z,4.4
2023-04-28T04:22:38.223Z,3
2023-04-28T04:24:44.041Z,3.3
2023-04-28T04:26:49.858Z,4.4
2023-04-28T04:33:10.418Z,3.7
2023-04-28T04:35:16.173Z,4.1
2023-04-28T04:54:11.581Z,4.3
2023-04-28T04:56:17.419Z,3.9
2023-04-28T04:58:23.226Z,4.1
2023-04-28T05:02:38.091Z,4
2023-04-28T05:06:49.579Z,4.5
2023-04-28T05:07:54.020Z,4.2
2023-04-28T05:14:11.529Z,4.8
2023-04-28T05:18:26.232Z,5.1
2023-04-28T05:20:32.077Z,4
2023-04-28T05:22:37.896Z,4.8
2023-04-28T05:24:43.682Z,4.2
2023-04-28T05:26:49.526Z,3.8
2023-04-28T05:28:55.359Z,3.8
2023-04-28T05:31:04.268Z,4.3
2023-04-28T05:33:10.121Z,3.7
2023-04-28T05:35:15.910Z,4.5
2023-04-28T05:37:21.713Z,3.3
2023-04-28T05:39:27.549Z,4.2
2023-04-28T05:41:33.334Z,3.4
2023-04-28T05:43:39.194Z,4.4
2023-04-28T05:52:05.585Z,4
2023-04-28T05:54:11.384Z,4.9
2023-04-28T05:56:17.235Z,3.7
2023-04-28T05:58:23.047Z,4.6
2023-04-28T06:00:31.911Z,4.9
2023-04-28T06:02:37.842Z,4.3
2023-04-28T06:04:43.703Z,4.8
2023-04-28T06:05:48.184Z,4.7
2023-04-28T06:14:14.494Z,4.8
2023-04-28T06:16:20.334Z,5.2
2023-04-28T06:18:26.122Z,4.5
2023-04-28T06:22:37.754Z,5.3
2023-04-28T06:24:43.573Z,5.5
2023-04-28T06:26:49.429Z,5.9
2023-04-28T06:28:58.342Z,5.1
2023-04-28T06:31:04.219Z,6.1
2023-04-28T06:33:09.973Z,6.4
2023-04-28T06:35:15.807Z,6
2023-04-28T06:37:21.658Z,6
2023-04-28T06:39:27.458Z,6.6
2023-04-28T06:45:48.150Z,7
2023-04-28T06:47:53.897Z,7.4
2023-04-28T06:49:59.707Z,7
2023-04-28T06:54:11.586Z,7.3
2023-04-28T06:56:17.186Z,7.3
2023-04-28T07:02:37.902Z,7
2023-04-28T07:05:09.320Z,9.6
2023-04-28T07:09:20.975Z,9
2023-04-28T07:11:29.877Z,9
2023-04-28T07:13:35.721Z,8.6
2023-04-28T07:15:41.564Z,9.3
2023-04-28T07:19:53.240Z,8.5
2023-04-28T07:21:59.044Z,8.4
2023-04-28T07:36:43.018Z,9.8
2023-04-28T07:43:03.614Z,8.6
2023-04-28T07:45:09.358Z,10.2
2023-04-28T07:47:15.200Z,9.7
2023-04-28T07:49:20.969Z,9.4
2023-04-28T08:00:57.420Z,10.2
2023-04-28T08:05:09.189Z,9.5
2023-04-28T08:07:14.749Z,9.9
2023-04-28T08:09:23.474Z,10.9
2023-04-28T08:17:46.646Z,9.8
2023-04-28T08:19:52.340Z,9.9
2023-04-28T08:24:06.875Z,9.8
2023-04-28T08:28:18.397Z,10.9
2023-04-28T08:38:50.269Z,10
2023-04-28T08:40:56.098Z,9.2
2023-04-28T08:43:01.871Z,10.6
2023-04-28T08:55:39.566Z,9.9
2023-04-28T08:57:45.379Z,10.6
2023-04-28T09:05:07.399Z,9
2023-04-28T09:07:15.876Z,10.6
2023-04-28T09:09:21.663Z,9.8
2023-04-28T09:11:27.443Z,11.1
2023-04-28T09:13:33.226Z,9.5
2023-04-28T09:19:50.613Z,9.6
2023-04-28T09:28:16.776Z,11.2
2023-04-28T09:32:28.801Z,12.4
2023-04-28T09:34:34.161Z,12.5
2023-04-28T09:36:42.923Z,14
2023-04-28T09:38:48.725Z,13.4
2023-04-28T09:40:54.546Z,12.6
2023-04-28T09:43:06.313Z,13.6
2023-04-28T09:47:11.899Z,13.9
2023-04-28T09:49:17.714Z,13
2023-04-28T09:51:26.473Z,14.8
2023-04-28T09:55:38.025Z,14.2
2023-04-28T09:56:44.042Z,14.7
2023-04-28T09:58:49.781Z,14.8
2023-04-28T10:00:55.588Z,14.6
2023-04-28T10:07:15.925Z,14.8
2023-04-28T10:11:27.475Z,18.2
2023-04-28T10:13:33.286Z,18.3
2023-04-28T10:17:44.872Z,18.8
2023-04-28T10:19:53.637Z,20.2
2023-04-28T10:21:59.416Z,19.9
2023-04-28T10:24:05.210Z,22.5
2023-04-28T10:26:10.992Z,22.1
2023-04-28T10:28:16.781Z,22.9
2023-04-28T10:34:37.134Z,21.8
2023-04-28T10:36:42.884Z,23.6
2023-04-28T10:38:48.677Z,20.7
2023-04-28T10:40:54.475Z,23.6
2023-04-28T10:49:20.613Z,21.6
2023-04-28T11:19:13.075Z,18.3
2023-04-28T11:25:30.467Z,17.3
2023-04-28T11:31:50.894Z,15.9
2023-04-28T11:33:56.591Z,13.7
2023-04-28T11:36:02.379Z,12.7
2023-04-28T11:38:08.189Z,15.1
2023-04-28T11:40:13.962Z,15.4
2023-04-28T11:48:40.114Z,13.1
2023-04-28T11:51:50.456Z,16.7
2023-04-28T11:53:56.094Z,13.6
2023-04-28T11:56:01.851Z,12.8
2023-04-28T11:58:07.650Z,15.8
2023-04-28T12:10:45.450Z,12.4
2023-04-28T12:12:53.123Z,10.5
2023-04-28T12:19:11.577Z,13.7
2023-04-28T12:21:17.350Z,8.9
2023-04-28T12:25:22.913Z,11.4
2023-04-28T12:27:28.717Z,9.8
2023-04-28T12:31:43.292Z,9.3
2023-04-28T12:35:55.045Z,8.3
2023-04-28T12:38:00.682Z,8.8
2023-04-28T12:40:06.529Z,7.8
2023-04-28T12:42:12.286Z,6.8
2023-04-28T12:46:26.839Z,7.7
2023-04-28T12:49:37.035Z,7.5
2023-04-28T12:51:42.831Z,7.3
2023-04-28T12:53:48.625Z,7.1
2023-04-28T12:55:54.397Z,6.3
2023-04-28T12:58:03.206Z,7.4
2023-04-28T13:00:09.007Z,8.1
2023-04-28T13:02:14.846Z,6.7
2023-04-28T13:04:20.928Z,7.3
2023-04-28T13:06:26.405Z,7.1
2023-04-28T13:16:58.353Z,6.9
2023-04-28T13:19:04.184Z,5.7
2023-04-28T13:21:09.960Z,6.8
2023-04-28T13:23:15.760Z,8.6
2023-04-28T13:25:21.551Z,7.2
2023-04-28T13:27:30.340Z,6.2
2023-04-28T13:29:36.141Z,6.8
2023-04-28T13:31:42.040Z,5.6
2023-04-28T13:33:47.726Z,5.6
2023-04-28T13:35:53.519Z,5.1
2023-04-28T13:37:59.329Z,5.5
2023-04-28T13:40:05.182Z,6.5
2023-04-28T13:44:19.696Z,8.7
2023-04-28T13:46:25.545Z,8.2
2023-04-28T13:47:29.921Z,6.9
2023-04-28T13:49:35.693Z,8
2023-04-28T13:51:41.533Z,4.7
2023-04-28T13:53:47.317Z,6.1
2023-04-28T13:55:56.078Z,4.3
2023-04-28T13:58:01.897Z,4.5
2023-04-28T14:06:25.091Z,4.5
2023-04-28T14:14:51.199Z,4.1
2023-04-28T14:31:40.704Z,4
2023-04-28T14:37:57.946Z,5.1
2023-04-28T14:46:49.626Z,5.3
2023-04-28T14:48:55.439Z,3.5
2023-04-28T14:51:01.220Z,5
2023-04-28T14:53:10.005Z,5.3
2023-04-28T14:55:15.782Z,4.3
2023-04-28T14:57:21.617Z,5.7
2023-04-28T14:59:27.395Z,7.1
2023-04-28T15:01:33.270Z,5.9
2023-04-28T15:03:39.114Z,2.5
2023-04-28T15:07:53.569Z,13.5
2023-04-28T15:09:59.628Z,9.4
2023-04-28T15:12:05.163Z,10.5
2023-04-28T15:14:10.943Z,11.6
2023-04-28T15:16:16.790Z,5.3
2023-04-28T15:18:22.550Z,3
2023-04-28T15:20:29.685Z,3
2023-04-28T15:22:37.095Z,2.4
2023-04-28T15:26:48.672Z,2.9
2023-04-28T15:28:54.465Z,2.9
2023-04-28T15:31:00.256Z,3.1
2023-04-28T15:33:06.107Z,3
2023-04-28T15:35:11.854Z,2.8
2023-04-28T15:37:20.616Z,3.9
2023-04-28T15:39:26.402Z,8.4
2023-04-28T15:41:32.199Z,5.3
2023-04-28T15:42:36.593Z,5.7
2023-04-28T15:46:48.165Z,7.1
2023-04-28T15:48:53.961Z,6.9
2023-04-28T15:55:14.298Z,6.7
2023-04-28T15:57:20.105Z,7.2
2023-04-28T16:01:33.298Z,7.3
2023-04-28T16:07:53.556Z,9.6
2023-04-28T16:09:59.401Z,7.5
2023-04-28T16:12:05.148Z,7.6
2023-04-28T16:14:10.949Z,5.8
2023-04-28T16:16:16.744Z,7
2023-04-28T16:18:22.524Z,8.6
2023-04-28T16:20:31.286Z,10.1
2023-04-28T16:22:37.087Z,8.7
2023-04-28T16:24:42.828Z,9.1
2023-04-28T16:26:48.617Z,10.4
2023-04-28T16:28:54.428Z,11.9
2023-04-28T16:31:00.209Z,8.3
2023-04-28T16:33:06.022Z,10.5
2023-04-28T16:35:15.611Z,9.4
2023-04-28T16:37:20.546Z,8.5
2023-04-28T16:39:26.314Z,10.9
2023-04-28T16:40:30.694Z,13.7
2023-04-28T16:42:36.530Z,9.8
2023-04-28T16:44:42.338Z,10.1
2023-04-28T16:48:56.873Z,8.3
2023-04-28T16:51:02.634Z,8.2
2023-04-28T16:53:08.645Z,7.4
2023-04-28T16:55:14.196Z,7.7
2023-04-28T16:59:25.767Z,10.6
2023-04-28T17:03:40.427Z,10.4
2023-04-28T17:05:46.082Z,8.8
2023-04-28T17:09:57.632Z,9.9
2023-04-28T17:12:03.469Z,8.6
2023-04-28T17:14:09.227Z,10.3
2023-04-28T17:16:15.044Z,10.3
2023-04-28T17:18:23.768Z,11.5
2023-04-28T17:20:29.524Z,9.3
2023-04-28T17:24:41.115Z,9.1
2023-04-28T17:26:46.895Z,8.4
2023-04-28T17:28:52.676Z,9.9
2023-04-28T17:30:58.446Z,10.8
2023-04-28T17:33:07.223Z,12
2023-04-28T17:35:12.979Z,11.4
2023-04-28T17:37:18.753Z,11.6
2023-04-28T17:42:34.713Z,9.5
2023-04-28T17:46:49.254Z,9.9
2023-04-28T17:48:55.076Z,9.9
2023-04-28T17:57:18.129Z,9.2
2023-04-28T17:59:23.872Z,10.6
2023-04-28T18:01:32.654Z,12.1
2023-04-28T18:07:49.968Z,9.6
2023-04-28T18:09:55.709Z,9.1
2023-04-28T18:16:16.014Z,7.7
2023-04-28T18:18:21.782Z,8.5
2023-04-28T18:22:33.344Z,8.4
2023-04-28T18:24:39.102Z,9.4
2023-04-28T18:26:44.872Z,9
2023-04-28T18:28:50.651Z,9.3
2023-04-28T18:30:59.369Z,8
2023-04-28T18:33:05.166Z,8.8
2023-04-28T18:35:10.924Z,9.1
2023-04-28T18:37:42.262Z,11.6
2023-04-28T18:39:48.031Z,10.8
2023-04-28T18:44:02.583Z,11.3
2023-04-28T18:46:08.382Z,11.3
2023-04-28T18:48:14.119Z,10.6
2023-04-28T18:56:37.202Z,11.2
2023-04-28T19:00:51.809Z,13
2023-04-28T19:02:57.678Z,13.1
2023-04-28T19:05:03.309Z,12.9
2023-04-28T19:07:09.014Z,11.7
2023-04-28T19:21:52.367Z,12.8
2023-04-28T19:23:58.141Z,12.6
2023-04-28T19:26:03.920Z,12.7
2023-04-28T19:30:18.370Z,15.3
2023-04-28T19:39:45.830Z,10
2023-04-28T19:41:54.570Z,14.6
2023-04-28T19:44:00.332Z,14.3
2023-04-28T19:46:06.135Z,13.6
2023-04-28T19:48:11.953Z,15.1
2023-04-28T19:50:17.604Z,14.1
2023-04-28T19:52:23.454Z,13.9
2023-04-28T19:54:29.177Z,14.4
2023-04-28T19:56:37.902Z,15.5
2023-04-28T19:58:43.660Z,15.4
2023-04-28T20:11:21.242Z,14.7
2023-04-28T20:13:28.440Z,16.4
2023-04-28T20:15:32.960Z,16.7
2023-04-28T20:17:38.584Z,15.1
2023-04-28T20:19:44.321Z,17
2023-04-28T20:21:50.081Z,19.2
2023-04-28T20:23:55.842Z,17.6
2023-04-28T20:31:20.595Z,19.6
2023-04-28T20:33:26.248Z,19.8
2023-04-28T20:35:32.043Z,20.3
2023-04-28T20:39:46.531Z,18.2
2023-04-28T20:41:52.309Z,20.5
2023-04-28T20:50:15.382Z,22.4
2023-04-28T20:52:21.159Z,21.7
2023-04-28T20:54:29.850Z,21.7
2023-04-28T20:56:35.615Z,21.9
2023-04-28T20:58:41.397Z,24.5
2023-04-28T21:02:53.097Z,24.1
2023-04-28T21:07:04.455Z,22
2023-04-28T21:23:56.470Z,22.5
2023-04-28T21:26:02.263Z,23.6
2023-04-28T21:28:07.983Z,22.7
2023-04-28T21:33:23.895Z,24.4
2023-04-28T21:35:29.659Z,22.1
2023-04-28T21:37:38.407Z,22.1
2023-04-28T21:39:44.125Z,23.3
2023-04-28T21:41:49.895Z,23.1
2023-04-28T21:43:55.653Z,23.4
2023-04-28T21:46:01.468Z,22.3
2023-04-28T21:48:07.201Z,24.1
2023-04-28T21:50:12.917Z,22.9
2023-04-28T21:52:21.633Z,20.6
2023-04-28T22:04:57.913Z,19.3
2023-04-28T22:17:35.510Z,21.2
2023-04-28T22:19:41.239Z,20.6
2023-04-28T22:26:01.439Z,21.3
2023-04-28T22:28:32.776Z,21.3
2023-04-28T22:30:38.540Z,19.5
2023-04-28T22:32:44.444Z,22.6
2023-04-28T22:34:53.322Z,19.3
2023-04-28T22:36:59.076Z,19
2023-04-28T22:39:04.798Z,18.3
2023-04-28T22:51:42.539Z,18.7
2023-04-28T22:55:54.135Z,18.4
2023-04-28T22:57:59.850Z,19
2023-04-28T23:00:05.625Z,19.7
2023-04-28T23:04:20.584Z,20.7
2023-04-28T23:10:37.793Z,21
2023-04-28T23:12:43.660Z,17.8
2023-04-28T23:16:55.331Z,19
2023-04-28T23:19:04.287Z,19.6
2023-04-28T23:21:10.008Z,20.4
2023-04-28T23:23:15.868Z,17.3
2023-04-28T23:30:37.663Z,17.1
2023-04-28T23:32:46.603Z,20.4
2023-04-28T23:34:52.308Z,20
2023-04-28T23:39:04.017Z,18.8
2023-04-28T23:41:09.883Z,20.6
2023-04-28T23:43:15.700Z,21.5
2023-04-28T23:47:30.514Z,22
2023-04-28T23:49:36.329Z,21.1
2023-04-28T23:51:42.142Z,18
2023-04-28T23:53:47.890Z,21.5
2023-04-28T23:55:53.640Z,21.5
2023-04-28T23:57:59.460Z,20.1
